Time;durP1;ratioP1;P1;durP2;ratioP2;P2;SDS_P1;SDS_P2;PMS_P1;PMS_P2;Temp;Humidity;BMP_temperature;BMP_pressure;BME280_temperature;BME280_humidity;BME280_pressure;Samples;Min_cycle;Max_cycle;Signal;HPM_P1;HPM_P2
2021/09/24 00:01:51;;;;;;;8.57;3.67;;;;;;;;;;5055614;28;20082;-65
2021/09/24 00:04:18;;;;;;;11.02;4.00;;;;;;;;;;5055832;28;20029;-65
2021/09/24 00:06:44;;;;;;;7.40;3.58;;;;;;;;;;5054169;28;20402;-65
2021/09/24 00:09:11;;;;;;;7.45;4.07;;;;;;;;;;5054110;28;20028;-64
2021/09/24 00:11:37;;;;;;;8.18;3.72;;;;;;;;;;5055000;28;20028;-65
2021/09/24 00:14:04;;;;;;;8.75;3.83;;;;;;;;;;5055267;28;20092;-65
2021/09/24 00:16:30;;;;;;;8.75;4.25;;;;;;;;;;5053929;28;20018;-65
2021/09/24 00:18:56;;;;;;;6.15;2.70;;;;;;;;;;5054558;28;20071;-65
2021/09/24 00:21:22;;;;;;;7.82;3.33;;;;;;;;;;5055724;28;20021;-65
2021/09/24 00:23:49;;;;;;;10.20;4.03;;;;;;;;;;5055100;28;20032;-65
2021/09/24 00:26:16;;;;;;;10.65;3.78;;;;;;;;;;5054677;28;20047;-65
2021/09/24 00:28:42;;;;;;;6.45;3.50;;;;;;;;;;5055140;28;20080;-65
2021/09/24 00:31:08;;;;;;;9.93;4.03;;;;;;;;;;5054990;28;20021;-65
2021/09/24 00:33:34;;;;;;;6.20;3.67;;;;;;;;;;5053296;28;20025;-65
2021/09/24 00:36:01;;;;;;;6.20;3.55;;;;;;;;;;5054901;28;20021;-65
2021/09/24 00:38:27;;;;;;;7.70;3.83;;;;;;;;;;5054744;28;20060;-65
2021/09/24 00:40:53;;;;;;;8.50;3.72;;;;;;;;;;5053475;28;20079;-65
2021/09/24 00:43:20;;;;;;;7.28;3.88;;;;;;;;;;5054777;28;20073;-65
2021/09/24 00:45:47;;;;;;;6.40;3.65;;;;;;;;;;5054709;28;20017;-65
2021/09/24 00:48:13;;;;;;;5.72;3.53;;;;;;;;;;5054273;28;20025;-65
2021/09/24 00:50:39;;;;;;;6.80;3.70;;;;;;;;;;5054659;28;20044;-65
2021/09/24 00:53:09;;;;;;;7.40;3.63;;;;;;;;;;5054559;28;20377;-65
2021/09/24 00:55:36;;;;;;;6.95;3.15;;;;;;;;;;5054135;28;20020;-65
2021/09/24 00:58:02;;;;;;;5.82;3.35;;;;;;;;;;5054684;28;20040;-65
2021/09/24 01:00:28;;;;;;;7.25;3.47;;;;;;;;;;5054713;28;20022;-65
2021/09/24 01:02:54;;;;;;;7.15;3.55;;;;;;;;;;5053985;28;20025;-65
2021/09/24 01:05:20;;;;;;;7.18;3.83;;;;;;;;;;5054497;28;20021;-65
2021/09/24 01:07:47;;;;;;;7.40;3.67;;;;;;;;;;5052515;28;20025;-65
2021/09/24 01:10:14;;;;;;;7.22;4.15;;;;;;;;;;5052859;28;20021;-65
2021/09/24 01:12:41;;;;;;;5.82;3.25;;;;;;;;;;5054697;28;20033;-65
2021/09/24 01:15:08;;;;;;;6.70;3.28;;;;;;;;;;5052382;28;20116;-65
2021/09/24 01:17:35;;;;;;;9.52;4.53;;;;;;;;;;5053947;28;20045;-65
2021/09/24 01:20:01;;;;;;;6.05;3.10;;;;;;;;;;5052752;28;20115;-65
2021/09/24 01:22:27;;;;;;;9.43;4.15;;;;;;;;;;5052252;28;20044;-65
2021/09/24 01:24:53;;;;;;;6.93;3.38;;;;;;;;;;5052684;28;20025;-65
2021/09/24 01:27:19;;;;;;;7.40;3.42;;;;;;;;;;5053843;28;20021;-65
2021/09/24 01:29:50;;;;;;;10.18;3.83;;;;;;;;;;5052227;28;20040;-65
2021/09/24 01:32:16;;;;;;;11.43;4.82;;;;;;;;;;5054060;28;20049;-65
2021/09/24 01:34:43;;;;;;;8.55;4.57;;;;;;;;;;5053757;28;20021;-65
2021/09/24 01:37:09;;;;;;;9.13;3.92;;;;;;;;;;5051908;28;20027;-65
2021/09/24 01:39:35;;;;;;;8.48;4.78;;;;;;;;;;5053729;28;20397;-65
2021/09/24 01:42:01;;;;;;;11.40;4.60;;;;;;;;;;5053602;28;20079;-65
2021/09/24 01:44:28;;;;;;;7.60;3.83;;;;;;;;;;5053293;28;20517;-65
2021/09/24 01:46:54;;;;;;;9.82;4.32;;;;;;;;;;5053698;28;20075;-65
2021/09/24 01:49:21;;;;;;;9.60;4.78;;;;;;;;;;5053517;28;20036;-65
2021/09/24 01:51:47;;;;;;;10.45;5.90;;;;;;;;;;5051745;28;20466;-65
2021/09/24 01:54:15;;;;;;;15.88;5.47;;;;;;;;;;5053442;28;20056;-65
2021/09/24 01:56:42;;;;;;;14.13;6.20;;;;;;;;;;5053441;28;20466;-65
2021/09/24 01:59:08;;;;;;;15.30;6.65;;;;;;;;;;5051685;28;20401;-65
2021/09/24 02:01:35;;;;;;;15.02;7.90;;;;;;;;;;5053506;28;20021;-65
2021/09/24 02:04:01;;;;;;;21.60;8.13;;;;;;;;;;5052926;28;20021;-65
2021/09/24 02:06:27;;;;;;;13.77;7.07;;;;;;;;;;5052086;28;20028;-65
2021/09/24 02:08:54;;;;;;;14.93;6.25;;;;;;;;;;5053421;28;20028;-65
2021/09/24 02:11:20;;;;;;;15.25;6.05;;;;;;;;;;5052950;28;20104;-65
2021/09/24 02:13:46;;;;;;;15.73;6.93;;;;;;;;;;5053220;28;20029;-65
2021/09/24 02:16:13;;;;;;;17.58;8.18;;;;;;;;;;5053203;28;20366;-65
2021/09/24 02:18:40;;;;;;;13.98;7.32;;;;;;;;;;5052521;28;20037;-65
2021/09/24 02:21:06;;;;;;;18.55;7.47;;;;;;;;;;5053247;28;20393;-64
2021/09/24 02:23:32;;;;;;;15.18;7.20;;;;;;;;;;5053192;28;20122;-65
2021/09/24 02:25:59;;;;;;;13.45;6.13;;;;;;;;;;5052773;28;20036;-65
2021/09/24 02:28:25;;;;;;;10.60;5.20;;;;;;;;;;5051837;28;20025;-65
2021/09/24 02:30:51;;;;;;;14.25;5.63;;;;;;;;;;5051771;28;20029;-65
2021/09/24 02:33:18;;;;;;;10.85;5.38;;;;;;;;;;5052672;28;20432;-65
2021/09/24 02:35:44;;;;;;;10.45;5.85;;;;;;;;;;5053160;28;20045;-65
2021/09/24 02:38:10;;;;;;;11.85;6.63;;;;;;;;;;5052896;28;20036;-65
2021/09/24 02:40:37;;;;;;;11.85;6.13;;;;;;;;;;5052592;28;20025;-65
2021/09/24 02:43:03;;;;;;;13.38;6.10;;;;;;;;;;5053343;28;20025;-65
2021/09/24 02:45:30;;;;;;;14.32;5.10;;;;;;;;;;5052974;28;20543;-65
2021/09/24 02:47:56;;;;;;;8.40;4.80;;;;;;;;;;5051259;28;20057;-65
2021/09/24 02:50:22;;;;;;;8.60;4.57;;;;;;;;;;5053137;28;20096;-65
2021/09/24 02:52:48;;;;;;;9.48;5.50;;;;;;;;;;5053086;28;20024;-65
2021/09/24 02:55:15;;;;;;;11.32;5.20;;;;;;;;;;5052478;28;20024;-65
2021/09/24 02:57:41;;;;;;;9.07;4.88;;;;;;;;;;5051502;28;20087;-65
2021/09/24 03:00:08;;;;;;;9.00;4.60;;;;;;;;;;5052439;28;20108;-65
2021/09/24 03:02:35;;;;;;;9.43;4.10;;;;;;;;;;5052768;28;20045;-65
2021/09/24 03:05:05;;;;;;;6.60;3.75;;;;;;;;;;5054758;28;20021;-65
2021/09/24 03:07:31;;;;;;;9.60;5.00;;;;;;;;;;5056210;28;20021;-65
2021/09/24 03:09:57;;;;;;;8.80;4.65;;;;;;;;;;5056501;28;20381;-65
2021/09/24 03:12:23;;;;;;;7.07;3.72;;;;;;;;;;5055258;28;20025;-65
2021/09/24 03:14:49;;;;;;;9.85;4.35;;;;;;;;;;5054797;28;20025;-65
2021/09/24 03:17:16;;;;;;;9.77;4.85;;;;;;;;;;5056125;28;20025;-65
2021/09/24 03:19:43;;;;;;;7.47;3.97;;;;;;;;;;5056557;28;20524;-65
2021/09/24 03:22:09;;;;;;;8.00;3.55;;;;;;;;;;5056062;28;20079;-65
2021/09/24 03:24:35;;;;;;;5.95;3.25;;;;;;;;;;5054952;28;20424;-65
2021/09/24 03:27:01;;;;;;;7.63;4.47;;;;;;;;;;5054896;28;20025;-65
2021/09/24 03:29:28;;;;;;;9.48;3.67;;;;;;;;;;5054502;28;20500;-65
2021/09/24 03:31:54;;;;;;;9.35;4.32;;;;;;;;;;5056268;28;20040;-65
2021/09/24 03:34:21;;;;;;;7.28;4.10;;;;;;;;;;5056040;28;20044;-65
2021/09/24 03:36:47;;;;;;;12.32;4.95;;;;;;;;;;5055748;28;20098;-65
2021/09/24 03:39:14;;;;;;;7.00;3.55;;;;;;;;;;5055919;28;20398;-65
2021/09/24 03:41:44;;;;;;;7.53;4.47;;;;;;;;;;5055877;28;20469;-65
2021/09/24 03:44:11;;;;;;;7.13;3.50;;;;;;;;;;5055551;28;20075;-65
2021/09/24 03:46:37;;;;;;;7.55;3.58;;;;;;;;;;5055770;28;20045;-65
2021/09/24 03:49:04;;;;;;;6.78;3.95;;;;;;;;;;5055773;28;20040;-65
2021/09/24 03:51:30;;;;;;;7.55;4.72;;;;;;;;;;5055371;28;20025;-65
2021/09/24 03:53:57;;;;;;;6.85;3.58;;;;;;;;;;5055757;28;20043;-65
2021/09/24 03:56:23;;;;;;;6.93;3.78;;;;;;;;;;5055211;28;20442;-65
2021/09/24 03:58:49;;;;;;;6.93;3.83;;;;;;;;;;5055503;28;20110;-67
2021/09/24 04:01:15;;;;;;;7.75;4.18;;;;;;;;;;5055649;28;20029;-68
2021/09/24 04:03:44;;;;;;;7.45;3.72;;;;;;;;;;5053898;28;20029;-68
2021/09/24 04:06:11;;;;;;;7.07;3.92;;;;;;;;;;5055496;28;20025;-68
2021/09/24 04:08:37;;;;;;;8.75;4.40;;;;;;;;;;5054207;28;20462;-67
2021/09/24 04:11:04;;;;;;;7.13;3.97;;;;;;;;;;5055010;28;20055;-66
2021/09/24 04:13:30;;;;;;;8.45;4.22;;;;;;;;;;5055388;28;20386;-66
2021/09/24 04:15:56;;;;;;;6.70;3.72;;;;;;;;;;5053955;28;20116;-66
2021/09/24 04:18:22;;;;;;;7.68;3.80;;;;;;;;;;5054629;28;20044;-66
2021/09/24 04:20:49;;;;;;;9.88;4.30;;;;;;;;;;5055250;28;20021;-67
2021/09/24 04:23:16;;;;;;;9.32;4.47;;;;;;;;;;5055498;28;20071;-66
2021/09/24 04:25:42;;;;;;;8.60;4.25;;;;;;;;;;5054751;28;20021;-66
2021/09/24 04:28:08;;;;;;;8.13;4.18;;;;;;;;;;5055102;28;20025;-65
2021/09/24 04:30:34;;;;;;;6.65;4.10;;;;;;;;;;5053708;28;20025;-65
2021/09/24 04:33:01;;;;;;;11.43;4.18;;;;;;;;;;5054630;28;20025;-65
2021/09/24 04:35:27;;;;;;;9.23;4.28;;;;;;;;;;5054972;28;20362;-65
2021/09/24 04:37:53;;;;;;;8.52;4.18;;;;;;;;;;5054806;28;20104;-65
2021/09/24 04:40:20;;;;;;;8.60;3.88;;;;;;;;;;5054450;28;20143;-65
2021/09/24 04:42:46;;;;;;;7.53;3.83;;;;;;;;;;5055076;28;20401;-65
2021/09/24 04:45:13;;;;;;;7.65;4.82;;;;;;;;;;5054803;28;20028;-65
2021/09/24 04:47:39;;;;;;;9.52;4.65;;;;;;;;;;5052958;28;20059;-65
2021/09/24 04:50:06;;;;;;;8.57;5.25;;;;;;;;;;5054559;28;20049;-65
2021/09/24 04:52:32;;;;;;;8.25;4.35;;;;;;;;;;5054792;28;20029;-65
2021/09/24 04:54:59;;;;;;;8.98;4.40;;;;;;;;;;5054231;28;20501;-65
2021/09/24 04:57:25;;;;;;;9.02;4.60;;;;;;;;;;5054447;28;20096;-65
2021/09/24 04:59:51;;;;;;;8.02;3.85;;;;;;;;;;5054285;28;20421;-65
2021/09/24 05:02:17;;;;;;;10.80;4.30;;;;;;;;;;5054612;28;20021;-65
2021/09/24 05:04:44;;;;;;;9.85;4.88;;;;;;;;;;5054574;28;20029;-65
2021/09/24 05:07:10;;;;;;;8.25;4.22;;;;;;;;;;5053958;28;20122;-65
2021/09/24 05:09:36;;;;;;;8.20;4.13;;;;;;;;;;5054073;28;20603;-70
2021/09/24 05:12:03;;;;;;;13.07;3.88;;;;;;;;;;5050994;28;20108;-66
2021/09/24 05:14:29;;;;;;;8.70;4.97;;;;;;;;;;5045836;28;20055;-67
2021/09/24 05:16:56;;;;;;;9.57;4.47;;;;;;;;;;5051825;28;20025;-67
2021/09/24 05:19:22;;;;;;;8.25;4.07;;;;;;;;;;5052682;28;20413;-70
2021/09/24 05:21:49;;;;;;;8.77;4.93;;;;;;;;;;5041641;28;20025;-67
2021/09/24 05:24:15;;;;;;;10.93;6.20;;;;;;;;;;5052884;28;20033;-67
2021/09/24 05:26:41;;;;;;;10.40;6.10;;;;;;;;;;5052371;28;20029;-68
2021/09/24 05:29:07;;;;;;;8.25;5.65;;;;;;;;;;5051772;28;20083;-70
2021/09/24 05:31:33;;;;;;;8.43;4.88;;;;;;;;;;5050965;28;20028;-68
2021/09/24 05:34:02;;;;;;;9.48;5.10;;;;;;;;;;5037667;28;20063;-68
2021/09/24 05:36:28;;;;;;;7.15;4.15;;;;;;;;;;5030874;28;20025;-70
2021/09/24 05:38:54;;;;;;;8.27;4.93;;;;;;;;;;5030304;28;20038;-68
2021/09/24 05:41:21;;;;;;;13.38;5.50;;;;;;;;;;5049028;28;20028;-68
2021/09/24 05:43:50;;;;;;;10.27;4.15;;;;;;;;;;5051634;28;20032;-70
2021/09/24 05:46:17;;;;;;;10.15;4.57;;;;;;;;;;5053175;28;20016;-69
2021/09/24 05:48:43;;;;;;;8.05;5.00;;;;;;;;;;5051976;28;20079;-69
2021/09/24 05:51:09;;;;;;;8.95;4.38;;;;;;;;;;5051019;28;20052;-69
2021/09/24 05:53:36;;;;;;;8.38;4.65;;;;;;;;;;5047960;28;20029;-69
2021/09/24 05:56:03;;;;;;;8.10;4.28;;;;;;;;;;5047254;28;20027;-71
2021/09/24 05:58:29;;;;;;;8.23;4.57;;;;;;;;;;5049672;28;20103;-69
2021/09/24 06:00:55;;;;;;;12.30;4.05;;;;;;;;;;5050972;28;20075;-68
2021/09/24 06:03:21;;;;;;;7.22;4.20;;;;;;;;;;5049738;28;20052;-69
2021/09/24 06:05:47;;;;;;;9.95;4.40;;;;;;;;;;5051102;28;20029;-68
2021/09/24 06:08:13;;;;;;;8.18;4.55;;;;;;;;;;5051526;28;20032;-67
2021/09/24 06:10:40;;;;;;;8.63;4.68;;;;;;;;;;5050323;28;20017;-67
2021/09/24 06:13:09;;;;;;;7.32;4.28;;;;;;;;;;5044304;28;20116;-68
2021/09/24 06:15:36;;;;;;;8.45;4.72;;;;;;;;;;5050689;28;20032;-67
2021/09/24 06:18:03;;;;;;;7.78;4.75;;;;;;;;;;5047650;28;20132;-67
2021/09/24 06:20:30;;;;;;;8.63;4.55;;;;;;;;;;5049053;28;20025;-68
2021/09/24 06:22:56;;;;;;;7.63;4.03;;;;;;;;;;5047796;28;20074;-68
2021/09/24 06:25:23;;;;;;;7.85;4.57;;;;;;;;;;5049368;28;20053;-67
2021/09/24 06:27:49;;;;;;;7.32;4.25;;;;;;;;;;5047764;28;20660;-68
2021/09/24 06:30:17;;;;;;;9.48;5.32;;;;;;;;;;5050716;28;20481;-68
2021/09/24 06:32:43;;;;;;;11.75;5.22;;;;;;;;;;5045921;28;20595;-69
2021/09/24 06:35:10;;;;;;;9.90;5.45;;;;;;;;;;5050890;28;20070;-69
2021/09/24 06:37:39;;;;;;;9.88;5.00;;;;;;;;;;5050378;28;20017;-70
2021/09/24 06:40:06;;;;;;;11.60;5.45;;;;;;;;;;5051978;28;20033;-69
2021/09/24 06:42:33;;;;;;;9.45;4.60;;;;;;;;;;5054944;28;20025;-66
2021/09/24 06:44:59;;;;;;;10.23;5.13;;;;;;;;;;5055120;28;20033;-66
2021/09/24 06:47:26;;;;;;;11.05;5.15;;;;;;;;;;5053650;28;20555;-64
2021/09/24 06:49:52;;;;;;;14.00;5.43;;;;;;;;;;5054472;28;20079;-65
2021/09/24 06:52:19;;;;;;;9.85;4.95;;;;;;;;;;5055361;28;20095;-65
2021/09/24 06:54:45;;;;;;;11.55;4.80;;;;;;;;;;5055858;28;20028;-65
2021/09/24 06:57:12;;;;;;;11.80;5.57;;;;;;;;;;5055346;28;20032;-66
2021/09/24 06:59:39;;;;;;;10.45;4.93;;;;;;;;;;5053212;28;20037;-68
2021/09/24 07:02:05;;;;;;;16.50;6.95;;;;;;;;;;5055251;28;20548;-65
2021/09/24 07:04:32;;;;;;;18.65;10.63;;;;;;;;;;5054505;28;20049;-65
2021/09/24 07:06:58;;;;;;;10.55;5.47;;;;;;;;;;5051961;28;20044;-66
2021/09/24 07:09:24;;;;;;;10.02;5.28;;;;;;;;;;5043192;28;20072;-65
2021/09/24 07:11:51;;;;;;;10.00;5.25;;;;;;;;;;5033227;28;20454;-65
2021/09/24 07:14:18;;;;;;;11.02;5.40;;;;;;;;;;5037563;28;20472;-64
2021/09/24 07:16:44;;;;;;;10.35;5.32;;;;;;;;;;5032572;28;20445;-66
2021/09/24 07:19:11;;;;;;;12.38;5.18;;;;;;;;;;5033130;28;20395;-65
2021/09/24 07:21:37;;;;;;;11.68;5.85;;;;;;;;;;5041851;28;20024;-65
2021/09/24 07:26:11;;;;;;;9.02;5.10;;;;;;;;;;5110183;27;20416;-64
2021/09/24 07:29:40;;;;;;;12.60;6.88;;;;;;;;;;5110010;27;20413;-62
2021/09/24 07:33:49;;;;;;;14.68;5.53;;;;;;;;;;5193530;27;20480;-65
2021/09/24 07:37:21;;;;;;;12.07;6.05;;;;;;;;;;5109973;27;20467;-66
2021/09/24 07:42:02;;;;;;;9.88;4.82;;;;;;;;;;5096085;27;20398;-63
2021/09/24 07:44:29;;;;;;;10.75;5.50;;;;;;;;;;5047992;28;20052;-64
2021/09/24 07:46:56;;;;;;;10.93;5.30;;;;;;;;;;5067544;28;20025;-66
2021/09/24 07:51:49;;;;;;;9.45;5.15;;;;;;;;;;5067221;28;20494;-64
2021/09/24 07:54:31;;;;;;;10.05;5.00;;;;;;;;;;5109740;27;20454;-65
2021/09/24 07:56:57;;;;;;;9.27;4.35;;;;;;;;;;5109295;28;20028;-67
2021/09/24 07:59:24;;;;;;;8.57;4.70;;;;;;;;;;5108002;28;20030;-66
2021/09/24 08:01:51;;;;;;;10.63;5.10;;;;;;;;;;5108054;28;20070;-66
2021/09/24 08:04:54;;;;;;;12.77;4.90;;;;;;;;;;5141859;27;20331;-68
2021/09/24 08:07:21;;;;;;;9.18;4.38;;;;;;;;;;5111401;28;20031;-67
2021/09/24 08:13:05;;;;;;;8.02;4.93;;;;;;;;;;5107981;27;20399;-67
2021/09/24 08:15:32;;;;;;;7.78;3.40;;;;;;;;;;5090904;28;20082;-67
2021/09/24 08:19:08;;;;;;;7.55;4.05;;;;;;;;;;5066938;28;20411;-64
2021/09/24 08:21:35;;;;;;;9.02;4.03;;;;;;;;;;5065683;28;20536;-65
2021/09/24 08:24:50;;;;;;;7.68;4.32;;;;;;;;;;5067971;28;20468;-69
2021/09/24 08:27:17;;;;;;;8.18;4.25;;;;;;;;;;5050418;28;20024;-69
2021/09/24 08:29:43;;;;;;;6.80;3.95;;;;;;;;;;5066463;28;20024;-66
2021/09/24 08:32:09;;;;;;;7.82;4.28;;;;;;;;;;5066626;28;20463;-67
2021/09/24 08:36:00;;;;;;;6.93;3.25;;;;;;;;;;5068408;28;20822;-67
2021/09/24 08:39:00;;;;;;;7.30;4.13;;;;;;;;;;5109046;27;21026;-66
2021/09/24 08:41:29;;;;;;;9.45;4.72;;;;;;;;;;5107119;28;20024;-65
2021/09/24 08:43:59;;;;;;;8.07;4.22;;;;;;;;;;5105266;28;20020;-67
2021/09/24 08:47:39;;;;;;;6.97;4.18;;;;;;;;;;5168797;27;20200;-68
2021/09/24 08:50:07;;;;;;;7.88;3.78;;;;;;;;;;5149012;27;20098;-69
2021/09/24 08:52:38;;;;;;;8.40;4.35;;;;;;;;;;5149778;27;20021;-68
2021/09/24 08:55:06;;;;;;;7.10;4.50;;;;;;;;;;5148559;27;20022;-71
2021/09/24 08:57:33;;;;;;;9.38;5.13;;;;;;;;;;5129146;27;20023;-68
2021/09/24 09:00:00;;;;;;;9.90;5.65;;;;;;;;;;5142210;27;20471;-69
2021/09/24 09:03:05;;;;;;;10.18;6.45;;;;;;;;;;5102866;27;20773;-68
2021/09/24 09:07:04;;;;;;;9.10;4.97;;;;;;;;;;5067209;28;20470;-67
2021/09/24 09:09:38;;;;;;;21.77;16.75;;;;;;;;;;5064508;28;20021;-69
2021/09/24 09:12:11;;;;;;;9.27;5.93;;;;;;;;;;5047396;28;20021;-65
2021/09/24 09:14:37;;;;;;;8.45;4.60;;;;;;;;;;5044744;28;20027;-68
2021/09/24 09:17:24;;;;;;;8.38;3.63;;;;;;;;;;5050926;28;20032;-67
2021/09/24 09:19:51;;;;;;;5.55;3.28;;;;;;;;;;5056052;28;20619;-67
2021/09/24 09:22:21;;;;;;;7.20;3.88;;;;;;;;;;5055964;28;20029;-68
2021/09/24 09:25:58;;;;;;;8.25;3.63;;;;;;;;;;5109140;27;20412;-67
2021/09/24 09:28:43;;;;;;;6.80;4.05;;;;;;;;;;5109374;28;20030;-67
2021/09/24 09:31:23;;;;;;;7.50;3.70;;;;;;;;;;5109376;28;20073;-68
2021/09/24 09:33:50;;;;;;;6.63;3.60;;;;;;;;;;5110240;28;20024;-68
2021/09/24 09:36:28;;;;;;;12.02;4.40;;;;;;;;;;5112585;28;20027;-67
2021/09/24 09:38:56;;;;;;;7.32;3.88;;;;;;;;;;5124861;28;20023;-69
2021/09/24 09:41:23;;;;;;;8.90;4.05;;;;;;;;;;5109645;28;20020;-66
2021/09/24 09:43:52;;;;;;;6.43;3.50;;;;;;;;;;5115740;28;20032;-67
2021/09/24 09:46:23;;;;;;;5.85;3.33;;;;;;;;;;5087385;28;20032;-69
2021/09/24 09:49:14;;;;;;;5.13;3.17;;;;;;;;;;5109332;27;20927;-66
2021/09/24 09:53:02;;;;;;;7.10;3.20;;;;;;;;;;5115197;27;20133;-68
2021/09/24 09:55:33;;;;;;;8.27;3.92;;;;;;;;;;5106543;28;20054;-69
2021/09/24 09:58:01;;;;;;;5.78;3.45;;;;;;;;;;5107818;28;20387;-68
2021/09/24 10:00:28;;;;;;;8.70;4.55;;;;;;;;;;5089335;28;20034;-70
2021/09/24 10:03:05;;;;;;;6.88;3.67;;;;;;;;;;5107652;28;20016;-69
2021/09/24 10:05:32;;;;;;;6.50;3.63;;;;;;;;;;5090344;28;20081;-67
2021/09/24 10:09:36;;;;;;;5.05;2.90;;;;;;;;;;5104342;27;20404;-74
2021/09/24 10:12:14;;;;;;;6.30;2.78;;;;;;;;;;5104333;28;20038;-69
2021/09/24 10:14:42;;;;;;;5.80;3.00;;;;;;;;;;5106490;28;20077;-72
2021/09/24 10:17:09;;;;;;;5.40;3.22;;;;;;;;;;5104079;28;20028;-73
2021/09/24 10:19:35;;;;;;;5.68;3.20;;;;;;;;;;5088176;28;20085;-70
2021/09/24 10:22:03;;;;;;;5.72;3.17;;;;;;;;;;5082983;28;20498;-68
2021/09/24 10:24:31;;;;;;;6.00;3.00;;;;;;;;;;5108994;28;20019;-68
2021/09/24 10:27:00;;;;;;;5.20;3.05;;;;;;;;;;5109286;28;20027;-67
2021/09/24 10:29:31;;;;;;;4.97;2.50;;;;;;;;;;5109774;28;20028;-68
2021/09/24 10:32:12;;;;;;;4.97;2.95;;;;;;;;;;5107799;28;20024;-69
2021/09/24 10:34:51;;;;;;;5.15;2.60;;;;;;;;;;5108247;28;20028;-69
2021/09/24 10:37:19;;;;;;;6.13;3.10;;;;;;;;;;5102075;28;20028;-68
2021/09/24 10:39:47;;;;;;;4.55;2.80;;;;;;;;;;5109523;28;20102;-67
2021/09/24 10:42:16;;;;;;;4.63;2.63;;;;;;;;;;5108496;28;20020;-68
2021/09/24 10:45:01;;;;;;;5.45;2.60;;;;;;;;;;5099201;28;20311;-69
2021/09/24 10:47:54;;;;;;;5.45;3.13;;;;;;;;;;5106745;27;20923;-68
2021/09/24 10:53:09;;;;;;;6.32;3.80;;;;;;;;;;5108778;28;20780;-69
2021/09/24 10:55:36;;;;;;;6.53;2.85;;;;;;;;;;5107507;28;20095;-72
2021/09/24 10:58:02;;;;;;;11.75;3.85;;;;;;;;;;5108013;28;20107;-69
2021/09/24 11:00:30;;;;;;;6.00;3.20;;;;;;;;;;5106861;28;20028;-69
2021/09/24 11:03:09;;;;;;;6.35;3.05;;;;;;;;;;5109047;28;20019;-68
2021/09/24 11:05:55;;;;;;;5.55;3.00;;;;;;;;;;5109358;28;20019;-68
2021/09/24 11:08:46;;;;;;;4.50;2.70;;;;;;;;;;5068546;28;20449;-68
2021/09/24 11:11:15;;;;;;;6.53;2.85;;;;;;;;;;5069690;28;20028;-66
2021/09/24 11:15:06;;;;;;;5.22;2.60;;;;;;;;;;5109588;27;20823;-71
2021/09/24 11:17:46;;;;;;;3.83;2.20;;;;;;;;;;5109603;28;20092;-68
2021/09/24 11:20:31;;;;;;;4.97;2.80;;;;;;;;;;5109808;28;20476;-68
2021/09/24 11:24:38;;;;;;;5.63;2.72;;;;;;;;;;5110185;27;20418;-71
2021/09/24 11:27:49;;;;;;;5.05;2.47;;;;;;;;;;5149202;27;20311;-65
2021/09/24 11:30:15;;;;;;;8.50;2.40;;;;;;;;;;5112610;28;20080;-66
2021/09/24 11:32:43;;;;;;;4.65;2.42;;;;;;;;;;5112773;28;20058;-67
2021/09/24 11:37:26;;;;;;;5.00;2.55;;;;;;;;;;5110618;27;20404;-67
2021/09/24 11:40:02;;;;;;;5.55;2.53;;;;;;;;;;5108579;28;20028;-66
2021/09/24 11:42:29;;;;;;;3.20;2.20;;;;;;;;;;5107053;28;20035;-68
2021/09/24 11:44:56;;;;;;;5.05;2.45;;;;;;;;;;5103642;28;20020;-66
2021/09/24 11:47:24;;;;;;;4.07;2.38;;;;;;;;;;5109998;28;20045;-65
2021/09/24 11:49:53;;;;;;;8.93;5.45;;;;;;;;;;5110014;28;20030;-66
2021/09/24 11:52:19;;;;;;;4.47;2.60;;;;;;;;;;5109896;28;20028;-66
2021/09/24 11:54:46;;;;;;;4.88;2.63;;;;;;;;;;5105843;28;20069;-65
2021/09/24 11:57:19;;;;;;;4.38;2.33;;;;;;;;;;5107578;28;20046;-66
2021/09/24 11:59:46;;;;;;;6.00;2.67;;;;;;;;;;5108789;28;20028;-66
2021/09/24 12:02:19;;;;;;;7.43;2.83;;;;;;;;;;5109316;28;20024;-65
2021/09/24 12:04:58;;;;;;;3.50;2.15;;;;;;;;;;5105956;28;20027;-66
2021/09/24 12:07:25;;;;;;;4.32;2.70;;;;;;;;;;5109981;28;20770;-66
2021/09/24 12:09:58;;;;;;;4.90;2.20;;;;;;;;;;5106943;28;20048;-65
2021/09/24 12:12:25;;;;;;;5.00;2.25;;;;;;;;;;5108096;28;20099;-66
2021/09/24 12:14:57;;;;;;;3.85;2.20;;;;;;;;;;5108337;28;20464;-67
2021/09/24 12:17:24;;;;;;;3.63;2.17;;;;;;;;;;5107223;28;20028;-67
2021/09/24 12:19:50;;;;;;;6.00;2.45;;;;;;;;;;5107374;28;20441;-66
2021/09/24 12:22:17;;;;;;;4.07;2.10;;;;;;;;;;5108216;28;20403;-67
2021/09/24 12:24:47;;;;;;;4.85;2.28;;;;;;;;;;5105156;28;20476;-66
2021/09/24 12:27:34;;;;;;;4.18;2.45;;;;;;;;;;5099177;28;20184;-66
2021/09/24 12:30:13;;;;;;;3.65;2.03;;;;;;;;;;5102456;28;20055;-66
2021/09/24 12:32:39;;;;;;;3.30;1.90;;;;;;;;;;5107805;28;20452;-66
2021/09/24 12:35:06;;;;;;;3.42;1.80;;;;;;;;;;5106341;28;20042;-66
2021/09/24 12:37:39;;;;;;;2.42;1.63;;;;;;;;;;5108290;28;20012;-67
2021/09/24 12:40:09;;;;;;;4.93;2.00;;;;;;;;;;5105612;28;20023;-65
2021/09/24 12:42:40;;;;;;;3.13;1.95;;;;;;;;;;5108983;28;20098;-66
2021/09/24 12:45:09;;;;;;;9.07;1.55;;;;;;;;;;5104714;28;20036;-69
2021/09/24 12:47:37;;;;;;;8.73;2.33;;;;;;;;;;5091945;28;20100;-69
2021/09/24 12:50:08;;;;;;;4.18;1.80;;;;;;;;;;5092436;28;20377;-66
2021/09/24 12:52:35;;;;;;;7.72;2.75;;;;;;;;;;5090915;28;20376;-68
2021/09/24 12:55:02;;;;;;;9.55;3.80;;;;;;;;;;5091459;28;20031;-67
2021/09/24 12:57:29;;;;;;;3.88;2.38;;;;;;;;;;5093577;28;20024;-66
2021/09/24 12:59:56;;;;;;;4.65;2.20;;;;;;;;;;5093826;28;20046;-67
2021/09/24 13:02:23;;;;;;;3.97;2.10;;;;;;;;;;5093313;28;20073;-68
2021/09/24 13:04:50;;;;;;;2.78;1.73;;;;;;;;;;5094852;28;20031;-67
2021/09/24 13:07:24;;;;;;;4.30;2.30;;;;;;;;;;5094109;28;20488;-66
2021/09/24 13:12:54;;;;;;;3.60;2.03;;;;;;;;;;5094848;28;20499;-68
2021/09/24 13:15:21;;;;;;;7.78;2.13;;;;;;;;;;5093732;28;20119;-68
2021/09/24 13:17:48;;;;;;;4.28;2.08;;;;;;;;;;5095837;28;20472;-67
2021/09/24 13:20:14;;;;;;;3.35;1.90;;;;;;;;;;5095292;28;20500;-67
2021/09/24 13:22:41;;;;;;;5.65;3.13;;;;;;;;;;5095565;28;20024;-67
2021/09/24 13:25:09;;;;;;;5.25;2.38;;;;;;;;;;5095385;28;20023;-66
2021/09/24 13:27:35;;;;;;;6.70;1.85;;;;;;;;;;5095087;28;20031;-68
2021/09/24 13:30:01;;;;;;;2.67;1.92;;;;;;;;;;5095402;28;20020;-67
2021/09/24 13:32:29;;;;;;;4.28;2.20;;;;;;;;;;5095310;28;20032;-68
2021/09/24 13:34:56;;;;;;;4.18;1.92;;;;;;;;;;5094730;28;20020;-67
2021/09/24 13:37:22;;;;;;;5.00;2.40;;;;;;;;;;5095248;28;20020;-68
2021/09/24 13:39:48;;;;;;;6.05;2.47;;;;;;;;;;5095125;28;20020;-67
2021/09/24 13:42:14;;;;;;;3.95;1.90;;;;;;;;;;5094789;28;20024;-68
2021/09/24 13:44:40;;;;;;;4.00;2.05;;;;;;;;;;5095111;28;20069;-66
2021/09/24 13:47:07;;;;;;;4.80;2.00;;;;;;;;;;5090202;28;20028;-68
2021/09/24 13:49:35;;;;;;;4.47;2.05;;;;;;;;;;5084443;28;20035;-67
2021/09/24 13:52:01;;;;;;;3.13;1.83;;;;;;;;;;5092894;28;20018;-68
2021/09/24 13:54:27;;;;;;;11.32;2.67;;;;;;;;;;5093250;28;20448;-68
2021/09/24 13:56:53;;;;;;;6.70;2.25;;;;;;;;;;5095086;28;20032;-68
2021/09/24 13:59:22;;;;;;;3.60;2.03;;;;;;;;;;5092491;28;20441;-67
2021/09/24 14:01:48;;;;;;;4.43;2.50;;;;;;;;;;5094428;28;20016;-67
2021/09/24 14:04:14;;;;;;;4.13;2.00;;;;;;;;;;5094840;28;20035;-67
2021/09/24 14:06:40;;;;;;;3.13;1.75;;;;;;;;;;5094562;28;20020;-67
2021/09/24 14:09:07;;;;;;;2.92;1.75;;;;;;;;;;5094452;28;20024;-67
2021/09/24 14:11:33;;;;;;;3.85;1.52;;;;;;;;;;5094641;28;20128;-69
2021/09/24 14:14:00;;;;;;;2.85;1.67;;;;;;;;;;5094585;28;20028;-66
2021/09/24 14:16:26;;;;;;;3.30;2.00;;;;;;;;;;5094111;28;20032;-68
2021/09/24 14:18:53;;;;;;;5.68;2.72;;;;;;;;;;5094574;28;20035;-67
2021/09/24 14:21:19;;;;;;;4.80;2.50;;;;;;;;;;5093338;28;20031;-67
2021/09/24 14:23:45;;;;;;;4.10;2.30;;;;;;;;;;5094115;28;20069;-67
2021/09/24 14:26:12;;;;;;;4.95;2.13;;;;;;;;;;5094225;28;20028;-67
2021/09/24 14:28:38;;;;;;;4.13;2.10;;;;;;;;;;5094337;28;20024;-68
2021/09/24 14:31:05;;;;;;;3.78;2.08;;;;;;;;;;5093904;28;20024;-68
2021/09/24 14:33:31;;;;;;;4.20;2.20;;;;;;;;;;5094126;28;20020;-68
2021/09/24 14:35:57;;;;;;;3.63;2.00;;;;;;;;;;5093952;28;20524;-68
2021/09/24 14:38:25;;;;;;;3.72;2.00;;;;;;;;;;5093851;28;20103;-68
2021/09/24 14:40:51;;;;;;;6.65;2.47;;;;;;;;;;5094088;28;20024;-68
2021/09/24 14:43:18;;;;;;;4.25;2.33;;;;;;;;;;5094068;28;20393;-67
2021/09/24 14:45:44;;;;;;;3.80;2.05;;;;;;;;;;5093450;28;20036;-67
2021/09/24 14:48:10;;;;;;;4.07;2.20;;;;;;;;;;5094302;28;20028;-68
2021/09/24 14:50:37;;;;;;;4.97;2.65;;;;;;;;;;5093748;28;20384;-67
2021/09/24 14:53:04;;;;;;;3.80;1.77;;;;;;;;;;5093935;28;20024;-68
2021/09/24 14:55:30;;;;;;;3.78;2.13;;;;;;;;;;5093979;28;20039;-68
2021/09/24 14:57:57;;;;;;;3.55;1.77;;;;;;;;;;5093428;28;20028;-68
2021/09/24 15:00:23;;;;;;;4.13;2.20;;;;;;;;;;5093757;28;20095;-69
2021/09/24 15:02:49;;;;;;;4.50;1.73;;;;;;;;;;5093774;28;20393;-67
2021/09/24 15:05:15;;;;;;;3.60;1.92;;;;;;;;;;5093325;28;20016;-67
2021/09/24 15:07:42;;;;;;;4.43;2.38;;;;;;;;;;5093659;28;20537;-67
2021/09/24 15:10:09;;;;;;;4.65;2.20;;;;;;;;;;5092104;28;20028;-66
2021/09/24 15:12:35;;;;;;;4.55;2.50;;;;;;;;;;5093332;28;20026;-68
2021/09/24 15:15:01;;;;;;;6.07;2.72;;;;;;;;;;5093542;28;20032;-67
2021/09/24 15:17:28;;;;;;;4.78;2.67;;;;;;;;;;5092189;28;20028;-67
2021/09/24 15:19:54;;;;;;;3.85;2.33;;;;;;;;;;5093292;28;20028;-67
2021/09/24 15:22:20;;;;;;;4.05;2.20;;;;;;;;;;5093433;28;20024;-67